Airfield :
LOGIN :

Register | Disclaimer

   EN    FR    IT 

 










Legend :    VFR   Marginal VFR   IFR   Intensive IFR   Very Intensive IFR
Visi :
Ceiling :
>= 8 km
>= 3000ft
5 to 8 km
1000 to 3000 ft
1500m to 5 km
500 to 1000 ft
800 to 1500m
200 to 500 ft
< 800m
< 200 ft
Symbols :   Thunderstorms  Fog  Heavy snow  Heavy precipitations  Wind > 20 kt
SIGMETs :     Misc.  Thunderstorms  Icing  Turbulence  Mountain Waves  Volcanic Ashes






- Airport Elevation : 215 ft
- IATA code : ABZ


EGPD - Aberdeen / Dyce

CURRENT METAR :
  • 230220Z AUTO VRB02KT 2000 BR BKN001 OVC034 11/11 Q1014 TEMPO 0300 FG VV///

EXPIRED METARs :
  • 230150Z AUTO VRB01KT 0350 FG VV/// 11/10 Q1014 TEMPO 2000 BR SCT001
  • 230120Z AUTO 36002KT 0400 FG BKN001 11/10 Q1014 TEMPO 2000 BR SCT001
  • 230050Z AUTO 34005KT 7000 NCD 11/10 Q1014
  • 230020Z AUTO VRB01KT 9999 NCD 11/10 Q1014 NOSIG
  • 222350Z AUTO VRB02KT 9999 NCD 12/12 Q1014
  • 222320Z AUTO 02002KT 9999 NCD 12/12 Q1013
  • 222250Z AUTO 36003KT 9999 NCD 13/12 Q1013
  • 222220Z AUTO VRB02KT 9999 NCD 14/12 Q1013
  • 222150Z AUTO 10002KT 9999 NCD 13/12 Q1013

TAF AMD TAF EGPD
Valid from the 23 at 01:00 until the 24 at 00:00 UTC


230104Z 2301/2324 33004KT 9999 SCT020
PROB40
TEMPO 2301/2306 0300 FG BKN001
PROB30
TEMPO 2309/2315 7000 SHRA
BECMG 2312/2315 12010KT



MET'MAP, your aeronautical weather chart ! - Copyright ORBIFLY December 2007 - Disclaimer

ORBIFLY MET'MAP TEAM :

Programming & Development : Alexandra Zaïnal
Original concept : Baudouin d'Aumeries
Technical & hardware support : Manuel Goepfert
Assistance : Marc-Olivier Méhu




SOURCES & CREDITS :

   NOAA